Time;durP1;ratioP1;P1;durP2;ratioP2;P2;SDS_P1;SDS_P2;PMS_P1;PMS_P2;Temp;Humidity;BMP_temperature;BMP_pressure;BME280_temperature;BME280_humidity;BME280_pressure;Samples;Min_cycle;Max_cycle;Signal;HPM_P1;HPM_P2
2022/12/01 00:00:41;;;;;;;29.17;10.25;;;;;;;2.53;100.00;99627.63;5086015;28;20082;-77
2022/12/01 00:03:07;;;;;;;29.67;12.35;;;;;;;2.50;100.00;99632.38;5082753;28;20074;-77
2022/12/01 00:05:34;;;;;;;28.35;11.68;;;;;;;2.35;100.00;99623.69;5087905;28;20456;-77
2022/12/01 00:08:01;;;;;;;26.58;11.48;;;;;;;2.33;100.00;99597.00;5087930;28;20044;-77
2022/12/01 00:10:28;;;;;;;27.33;11.57;;;;;;;2.32;100.00;99606.03;5086417;28;20155;-78
2022/12/01 00:12:56;;;;;;;28.95;11.60;;;;;;;2.38;100.00;99612.72;5089126;28;20044;-77
2022/12/01 00:15:25;;;;;;;30.38;12.35;;;;;;;2.43;100.00;99618.59;5084331;28;20139;-78
2022/12/01 00:17:52;;;;;;;27.07;12.30;;;;;;;2.56;100.00;99638.13;5086909;28;20076;-77
2022/12/01 00:20:19;;;;;;;26.67;11.45;;;;;;;2.36;100.00;99607.47;5084277;28;20098;-77
2022/12/01 00:22:47;;;;;;;25.27;11.70;;;;;;;2.58;100.00;99630.78;5093165;28;20048;-78
2022/12/01 00:25:16;;;;;;;23.20;11.35;;;;;;;2.43;100.00;99610.56;5089376;28;20057;-77
2022/12/01 00:27:47;;;;;;;26.38;12.52;;;;;;;2.40;100.00;99600.91;5092264;28;20499;-78
2022/12/01 00:30:14;;;;;;;25.33;11.45;;;;;;;2.44;100.00;99623.00;5092734;28;20063;-78
2022/12/01 00:32:40;;;;;;;28.80;12.15;;;;;;;2.38;100.00;99608.22;5088797;28;20044;-78
2022/12/01 00:35:08;;;;;;;23.02;11.95;;;;;;;2.48;100.00;99622.63;5091079;28;20071;-78
2022/12/01 00:37:35;;;;;;;29.58;12.68;;;;;;;2.38;100.00;99608.22;5089792;28;20040;-78
2022/12/01 00:40:04;;;;;;;30.25;12.18;;;;;;;2.40;100.00;99613.47;5091412;28;20060;-78
2022/12/01 00:42:30;;;;;;;22.67;10.30;;;;;;;2.55;100.00;99619.47;5089052;28;20426;-78
2022/12/01 00:44:58;;;;;;;28.55;11.55;;;;;;;2.55;100.00;99619.47;5093115;28;20044;-78
2022/12/01 00:47:25;;;;;;;32.00;13.05;;;;;;;2.38;100.00;99605.56;5086079;28;20051;-78
2022/12/01 00:49:52;;;;;;;25.77;10.82;;;;;;;2.40;100.00;99619.69;5090506;28;20058;-78
2022/12/01 00:52:19;;;;;;;24.17;11.02;;;;;;;2.45;100.00;99614.81;5086470;28;20487;-78
2022/12/01 00:54:46;;;;;;;24.10;10.60;;;;;;;2.56;100.00;99630.06;5077040;28;20415;-78
2022/12/01 00:57:13;;;;;;;25.77;10.38;;;;;;;2.51;100.00;99609.94;5092159;28;20554;-78
2022/12/01 00:59:40;;;;;;;24.80;10.32;;;;;;;2.58;100.00;99627.25;5085340;28;20052;-78
2022/12/01 01:02:08;;;;;;;29.88;11.45;;;;;;;2.58;100.00;99622.75;5092167;28;20511;-78
2022/12/01 01:04:36;;;;;;;30.23;11.57;;;;;;;2.50;100.00;99625.19;5086814;28;20047;-78
2022/12/01 01:07:03;;;;;;;25.70;11.10;;;;;;;2.51;100.00;99632.25;5092197;28;20040;-78
2022/12/01 01:09:31;;;;;;;25.25;11.50;;;;;;;2.47;100.00;99615.56;5081016;28;20491;-78
2022/12/01 01:11:57;;;;;;;24.35;9.25;;;;;;;2.62;100.00;99645.69;5088912;28;20044;-78
2022/12/01 01:14:24;;;;;;;24.23;11.45;;;;;;;2.48;100.00;99624.44;5085990;28;20403;-78
2022/12/01 01:16:51;;;;;;;22.52;10.52;;;;;;;2.43;100.00;99610.56;5089514;28;20680;-78
2022/12/01 01:19:19;;;;;;;22.42;10.93;;;;;;;2.43;100.00;99614.06;5084707;28;20512;-78
2022/12/01 01:21:45;;;;;;;21.60;10.75;;;;;;;2.35;100.00;99624.56;5089717;28;20060;-78
2022/12/01 01:24:12;;;;;;;23.05;9.85;;;;;;;2.55;100.00;99652.50;5082252;28;20048;-78
2022/12/01 01:26:38;;;;;;;22.17;9.73;;;;;;;2.36;100.00;99628.94;5090862;28;20434;-78
2022/12/01 01:29:06;;;;;;;21.33;9.25;;;;;;;2.39;100.00;99639.44;5084975;28;20037;-78
2022/12/01 01:31:34;;;;;;;21.23;9.63;;;;;;;2.30;99.84;99611.53;5091866;28;20054;-76
2022/12/01 01:34:00;;;;;;;26.20;10.90;;;;;;;2.48;100.00;99651.28;5088852;28;20070;-78
2022/12/01 01:36:28;;;;;;;22.00;9.45;;;;;;;2.26;99.30;99614.56;5091963;28;20052;-78
2022/12/01 01:38:55;;;;;;;24.98;10.50;;;;;;;2.36;100.00;99631.63;5080276;28;20491;-78
2022/12/01 01:41:22;;;;;;;16.33;8.88;;;;;;;2.44;98.48;99639.09;5091202;28;20089;-78
2022/12/01 01:43:51;;;;;;;20.33;9.82;;;;;;;2.38;99.07;99612.72;5081884;28;20048;-78
2022/12/01 01:46:19;;;;;;;23.20;9.45;;;;;;;2.43;99.52;99622.13;5091763;28;20503;-78
2022/12/01 01:48:49;;;;;;;21.90;9.70;;;;;;;2.42;99.48;99615.03;5088360;28;20465;-78
2022/12/01 01:51:19;;;;;;;21.73;9.30;;;;;;;2.46;98.96;99637.16;5089186;28;20416;-78
2022/12/01 01:53:49;;;;;;;18.95;8.43;;;;;;;2.40;97.37;99643.84;5087802;28;20040;-78
2022/12/01 01:56:15;;;;;;;23.02;9.43;;;;;;;2.32;98.57;99623.94;5088611;28;20410;-78
2022/12/01 01:58:42;;;;;;;18.85;8.80;;;;;;;2.27;98.76;99643.09;5088819;28;20086;-78
2022/12/01 02:01:08;;;;;;;20.38;9.15;;;;;;;2.21;96.82;99635.53;5089378;28;20044;-78
2022/12/01 02:03:37;;;;;;;21.33;9.55;;;;;;;2.14;97.25;99632.47;5084574;28;20043;-78
2022/12/01 02:06:06;;;;;;;14.77;5.95;;;;;;;2.21;95.38;99636.38;5089202;28;20048;-78
2022/12/01 02:08:36;;;;;;;18.80;9.55;;;;;;;1.99;97.74;99622.91;5087312;28;20079;-78
2022/12/01 02:11:27;;;;;;;19.50;9.40;;;;;;;2.13;99.15;99652.22;5084963;28;20098;-78
2022/12/01 02:14:03;;;;;;;20.73;9.75;;;;;;;2.00;98.98;99625.47;5085799;28;20040;-78
2022/12/01 02:16:38;;;;;;;20.73;9.30;;;;;;;2.03;98.47;99624.41;5085996;28;20071;-78
2022/12/01 02:19:34;;;;;;;24.08;9.63;;;;;;;2.08;98.65;99644.53;5082577;28;20041;-77
2022/12/01 02:22:11;;;;;;;22.17;8.25;;;;;;;2.07;98.64;99642.81;5089055;28;20048;-77
2022/12/01 02:25:19;;;;;;;18.88;8.70;;;;;;;2.03;99.69;99648.53;5090446;28;20051;-78
2022/12/01 02:28:16;;;;;;;22.52;8.98;;;;;;;1.88;99.29;99613.03;5085322;28;20052;-78
2022/12/01 02:30:47;;;;;;;19.80;9.82;;;;;;;1.88;100.00;99613.91;5080459;28;20059;-77
2022/12/01 02:33:19;;;;;;;21.65;9.07;;;;;;;1.88;100.00;99613.91;5080764;28;20066;-78
2022/12/01 02:35:50;;;;;;;21.50;8.93;;;;;;;1.93;100.00;99621.59;5090857;28;20048;-77
2022/12/01 02:38:26;;;;;;;20.45;7.95;;;;;;;2.01;100.00;99632.56;5080912;28;20097;-77
2022/12/01 02:41:00;;;;;;;19.70;8.77;;;;;;;1.96;100.00;99626.72;5089252;28;20074;-77
2022/12/01 02:43:31;;;;;;;23.92;9.93;;;;;;;1.89;100.00;99606.69;5080544;28;20475;-78
2022/12/01 02:46:04;;;;;;;25.20;10.05;;;;;;;1.89;100.00;99606.69;5090086;28;20052;-78
2022/12/01 02:48:33;;;;;;;19.90;9.93;;;;;;;1.97;100.00;99616.84;5078195;28;20137;-77
2022/12/01 02:51:06;;;;;;;20.40;8.67;;;;;;;1.92;100.00;99607.31;5076366;28;20053;-77
2022/12/01 02:53:33;;;;;;;20.40;8.65;;;;;;;1.93;100.00;99613.53;5083038;28;20313;-77
2022/12/01 02:56:00;;;;;;;20.95;8.90;;;;;;;1.89;100.00;99610.22;5083001;28;20054;-78
2022/12/01 02:58:27;;;;;;;22.30;10.80;;;;;;;1.93;100.00;99606.34;5084656;28;20133;-77
2022/12/01 03:01:07;;;;;;;18.83;8.73;;;;;;;2.07;100.00;99628.56;5089363;28;20059;-77
2022/12/01 03:03:57;;;;;;;21.25;9.35;;;;;;;2.15;100.00;99636.84;5081080;28;20395;-78
2022/12/01 03:06:35;;;;;;;23.70;10.32;;;;;;;1.97;100.00;99628.41;5086878;28;20113;-77
2022/12/01 03:09:09;;;;;;;24.08;9.75;;;;;;;1.87;100.00;99603.31;5090716;28;20463;-78
2022/12/01 03:11:41;;;;;;;27.60;10.63;;;;;;;2.02;100.00;99625.38;5078959;28;20047;-78
2022/12/01 03:14:16;;;;;;;22.55;10.07;;;;;;;1.91;100.00;99600.25;5087956;28;20048;-78
2022/12/01 03:16:50;;;;;;;17.60;8.90;;;;;;;2.14;100.00;99632.47;5081670;28;20534;-77
2022/12/01 03:19:24;;;;;;;29.80;10.65;;;;;;;2.09;100.00;99621.25;5083482;28;20081;-77
2022/12/01 03:21:56;;;;;;;22.27;9.35;;;;;;;2.02;100.00;99598.53;5087940;28;20044;-77
2022/12/01 03:24:28;;;;;;;21.23;9.82;;;;;;;2.10;100.00;99605.03;5081916;28;20051;-78
2022/12/01 03:26:58;;;;;;;26.13;10.35;;;;;;;2.25;100.00;99634.31;5089105;28;20048;-77
2022/12/01 03:29:28;;;;;;;21.98;10.18;;;;;;;2.09;100.00;99606.03;5089691;28;20047;-77
2022/12/01 03:32:00;;;;;;;22.65;10.30;;;;;;;2.17;100.00;99616.16;5091303;28;21173;-77
2022/12/01 03:34:33;;;;;;;21.70;10.00;;;;;;;2.10;100.00;99606.88;5087038;28;20438;-77
2022/12/01 03:37:03;;;;;;;23.80;10.82;;;;;;;2.04;100.00;99591.25;5090226;28;20048;-78
2022/12/01 03:39:34;;;;;;;22.17;9.98;;;;;;;2.19;100.00;99622.22;5086081;28;20052;-78
2022/12/01 03:42:06;;;;;;;22.42;9.35;;;;;;;1.97;100.00;99600.75;5083446;28;20407;-78
2022/12/01 03:44:39;;;;;;;22.80;10.82;;;;;;;2.00;100.00;99595.13;5089418;28;20044;-78
2022/12/01 03:47:11;;;;;;;22.63;11.43;;;;;;;2.19;100.00;99627.59;5090003;28;20040;-77
2022/12/01 03:49:39;;;;;;;24.30;10.65;;;;;;;2.16;100.00;99616.28;5089307;28;20128;-78
2022/12/01 03:52:14;;;;;;;26.63;11.05;;;;;;;2.10;100.00;99628.31;5073321;28;20052;-78
2022/12/01 03:54:49;;;;;;;26.90;11.18;;;;;;;2.01;100.00;99612.94;5089369;28;20040;-77
2022/12/01 03:57:22;;;;;;;22.60;10.82;;;;;;;2.05;100.00;99611.75;5085271;28;20047;-77
2022/12/01 03:59:49;;;;;;;26.02;11.10;;;;;;;1.90;100.00;99603.91;5093139;28;20525;-77
2022/12/01 04:02:17;;;;;;;25.55;11.27;;;;;;;2.13;100.00;99639.66;5093202;28;20126;-78
2022/12/01 04:04:44;;;;;;;25.05;11.25;;;;;;;2.02;100.00;99609.28;5095638;28;20071;-77
2022/12/01 04:07:12;;;;;;;28.08;12.60;;;;;;;1.98;100.00;99600.63;5095477;28;20047;-77
2022/12/01 04:09:39;;;;;;;24.10;11.70;;;;;;;2.13;100.00;99623.56;5095084;28;20078;-77
2022/12/01 04:14:50;;;;;;;29.88;12.77;;;;;;;1.94;100.00;99583.94;5083977;28;20055;-77
2022/12/01 04:17:18;;;;;;;25.40;11.38;;;;;;;1.93;100.00;99608.19;5095593;28;20135;-77
2022/12/01 04:19:45;;;;;;;27.40;12.05;;;;;;;1.86;100.00;99612.31;5085389;28;20135;-77
2022/12/01 04:22:11;;;;;;;24.98;11.85;;;;;;;1.85;100.00;99618.63;5076686;28;20449;-78
2022/12/01 04:24:38;;;;;;;32.30;13.05;;;;;;;1.78;100.00;99599.50;5088463;28;20479;-77
2022/12/01 04:27:04;;;;;;;29.05;11.77;;;;;;;1.66;100.00;99585.19;5095596;28;20486;-77
2022/12/01 04:29:31;;;;;;;28.33;12.95;;;;;;;1.82;100.00;99611.66;5091569;28;20170;-77
2022/12/01 04:31:58;;;;;;;25.80;12.80;;;;;;;1.81;100.00;99606.44;5086454;28;20044;-77
2022/12/01 04:34:26;;;;;;;31.52;14.20;;;;;;;1.88;100.00;99615.72;5090329;28;20123;-78
2022/12/01 04:36:53;;;;;;;26.25;12.85;;;;;;;1.76;100.00;99613.03;5093176;28;20052;-77
2022/12/01 04:39:23;;;;;;;24.42;11.70;;;;;;;1.80;100.00;99592.19;5092090;28;20051;-77
2022/12/01 04:41:50;;;;;;;30.70;12.55;;;;;;;1.83;100.00;99602.66;5083985;28;20088;-77
2022/12/01 04:44:16;;;;;;;29.90;13.30;;;;;;;1.71;100.00;99596.41;5077652;28;20051;-78
2022/12/01 04:46:43;;;;;;;30.63;12.60;;;;;;;1.93;100.00;99630.47;5087946;28;20056;-78
2022/12/01 04:49:09;;;;;;;26.30;12.65;;;;;;;1.77;100.00;99611.19;5093953;28;20048;-78
2022/12/01 04:51:37;;;;;;;30.90;12.45;;;;;;;1.62;100.00;99589.09;5093209;28;20041;-77
2022/12/01 04:54:04;;;;;;;29.20;12.43;;;;;;;1.91;100.00;99616.34;5092222;28;20047;-78
2022/12/01 04:56:31;;;;;;;34.65;13.18;;;;;;;1.78;100.00;99610.22;5093412;28;20044;-77
2022/12/01 04:58:58;;;;;;;27.27;12.70;;;;;;;1.67;100.00;99599.44;5093072;28;20043;-77
2022/12/01 05:01:25;;;;;;;26.52;12.50;;;;;;;1.70;100.00;99596.53;5092865;28;20048;-77
2022/12/01 05:03:52;;;;;;;30.98;13.13;;;;;;;1.82;100.00;99632.28;5092010;28;20498;-77
2022/12/01 05:06:21;;;;;;;28.23;12.63;;;;;;;1.62;100.00;99604.31;5083179;28;20040;-77
2022/12/01 05:08:49;;;;;;;27.45;11.93;;;;;;;1.79;100.00;99632.50;5089493;28;20048;-77
2022/12/01 05:11:18;;;;;;;31.35;13.50;;;;;;;1.74;100.00;99625.66;5094146;28;20058;-77
2022/12/01 05:13:46;;;;;;;26.85;11.80;;;;;;;1.71;100.00;99627.75;5093145;28;20048;-77
2022/12/01 05:16:15;;;;;;;30.75;12.40;;;;;;;1.77;100.00;99632.63;5092207;28;20052;-77
2022/12/01 05:18:42;;;;;;;26.33;12.55;;;;;;;1.69;100.00;99616.28;5085023;28;20126;-77
2022/12/01 05:21:09;;;;;;;19.35;9.43;;;;;;;1.70;100.00;99629.56;5087756;28;20050;-77
2022/12/01 05:23:37;;;;;;;29.27;12.50;;;;;;;1.53;100.00;99612.06;5088836;28;20040;-77
2022/12/01 05:26:07;;;;;;;25.02;9.98;;;;;;;1.67;100.00;99632.50;5094354;28;20044;-77
2022/12/01 05:28:33;;;;;;;;;;;;;;;1.69;100.00;99643.09;5088767;28;20048;-80
2022/12/01 05:31:00;;;;;;;24.25;10.30;;;;;;;1.69;100.00;99632.38;5093797;28;20025;-80
2022/12/01 05:33:28;;;;;;;27.73;11.43;;;;;;;1.57;100.00;99620.75;5092016;28;20127;-82
2022/12/01 05:35:59;;;;;;;25.52;12.20;;;;;;;1.58;100.00;99617.97;5086697;28;20056;-78
2022/12/01 05:41:10;;;;;;;31.90;13.05;;;;;;;1.64;100.00;99616.66;5082130;28;20093;-77
2022/12/01 05:43:36;;;;;;;;;;;;;;;1.73;100.00;99633.81;5081086;28;20055;-77
2022/12/01 05:46:03;;;;;;;29.00;12.13;;;;;;;1.65;100.00;99625.53;5084674;28;19920;-78
2022/12/01 05:48:30;;;;;;;29.70;12.05;;;;;;;1.62;100.00;99613.19;5087980;28;20048;-77
2022/12/01 05:50:56;;;;;;;30.30;13.15;;;;;;;1.82;100.00;99640.31;5083672;28;20398;-78
2022/12/01 05:53:23;;;;;;;24.85;11.57;;;;;;;1.65;100.00;99612.97;5081811;28;20488;-77
2022/12/01 05:55:52;;;;;;;36.55;13.10;;;;;;;1.62;100.00;99610.53;5091368;28;20054;-78
2022/12/01 05:58:20;;;;;;;25.33;10.68;;;;;;;1.69;100.00;99624.34;5091979;28;20051;-77
2022/12/01 06:00:47;;;;;;;24.60;10.25;;;;;;;1.79;100.00;99648.59;5079921;28;20048;-77
2022/12/01 06:03:13;;;;;;;27.50;9.93;;;;;;;1.66;100.00;99624.56;5089755;28;20058;-77
2022/12/01 06:05:40;;;;;;;22.55;10.65;;;;;;;1.70;100.00;99624.22;5082300;28;20047;-77
2022/12/01 06:08:07;;;;;;;15.93;8.25;;;;;;;1.51;100.00;99610.50;5083928;28;20044;-77
2022/12/01 06:10:34;;;;;;;25.48;10.18;;;;;;;1.50;100.00;99596.22;5085728;28;20050;-78
2022/12/01 06:13:01;;;;;;;26.00;11.07;;;;;;;1.63;100.00;99622.13;5076683;28;20041;-78
2022/12/01 06:15:29;;;;;;;25.77;11.35;;;;;;;1.82;100.00;99638.47;5092311;28;20048;-78
2022/12/01 06:17:59;;;;;;;25.25;11.63;;;;;;;1.83;100.00;99637.53;5088559;28;20063;-77
2022/12/01 06:20:26;;;;;;;26.08;12.07;;;;;;;1.73;100.00;99620.41;5085177;28;20054;-77
2022/12/01 06:22:52;;;;;;;24.98;11.07;;;;;;;1.83;100.00;99623.25;5089961;28;21371;-78
2022/12/01 06:25:19;;;;;;;23.95;11.10;;;;;;;1.75;100.00;99615.81;5088283;28;20040;-77
2022/12/01 06:27:45;;;;;;;26.88;12.10;;;;;;;1.80;100.00;99631.53;5089676;28;20052;-78
2022/12/01 06:30:13;;;;;;;25.90;11.75;;;;;;;1.95;100.00;99644.63;5087501;28;20048;-77
2022/12/01 06:32:41;;;;;;;29.35;11.00;;;;;;;1.82;100.00;99619.72;5086252;28;20054;-77
2022/12/01 06:35:08;;;;;;;21.95;11.02;;;;;;;2.04;100.00;99651.09;5088028;28;20054;-77
2022/12/01 06:37:35;;;;;;;26.95;12.55;;;;;;;2.13;100.00;99655.75;5089010;28;20063;-78
2022/12/01 06:40:02;;;;;;;26.73;12.00;;;;;;;2.08;100.00;99659.78;5081737;28;20044;-78
2022/12/01 06:42:29;;;;;;;28.08;12.68;;;;;;;1.90;100.00;99648.66;5085823;28;20051;-78
2022/12/01 06:44:55;;;;;;;28.55;11.35;;;;;;;1.83;100.00;99644.72;5086249;28;20044;-78
2022/12/01 06:47:25;;;;;;;24.98;12.10;;;;;;;1.76;100.00;99628.22;5080445;28;20055;-78
2022/12/01 06:49:53;;;;;;;27.27;11.35;;;;;;;2.00;100.00;99659.50;5086335;28;20055;-78
2022/12/01 06:52:20;;;;;;;23.02;10.77;;;;;;;2.00;100.00;99660.34;5077059;28;20044;-77
2022/12/01 06:54:46;;;;;;;27.48;11.77;;;;;;;1.85;100.00;99630.22;5079014;28;20047;-77
2022/12/01 06:57:13;;;;;;;26.15;11.13;;;;;;;2.01;100.00;99662.06;5085921;28;20048;-77
2022/12/01 06:59:40;;;;;;;26.38;11.23;;;;;;;1.93;100.00;99656.44;5088200;28;20131;-78
2022/12/01 07:02:06;;;;;;;29.13;11.85;;;;;;;1.93;100.00;99638.53;5087601;28;20075;-78
2022/12/01 07:04:33;;;;;;;23.92;10.02;;;;;;;1.85;100.00;99626.66;5085343;28;20043;-78
2022/12/01 07:07:01;;;;;;;24.83;10.75;;;;;;;1.85;100.00;99635.59;5085268;28;20044;-78
2022/12/01 07:09:28;;;;;;;26.42;10.52;;;;;;;1.69;100.00;99622.50;5087379;28;20048;-78
2022/12/01 07:11:55;;;;;;;26.88;12.30;;;;;;;1.88;100.00;99661.28;5082199;28;20487;-78
2022/12/01 07:14:25;;;;;;;24.38;11.45;;;;;;;1.96;100.00;99669.63;5081512;28;20454;-78
2022/12/01 07:16:51;;;;;;;;;;;;;;;1.98;100.00;99664.97;5089902;28;20044;-78
2022/12/01 07:19:18;;;;;;;18.55;7.45;;;;;;;1.93;100.00;99659.13;5080986;28;20613;-78
2022/12/01 07:21:45;;;;;;;25.65;10.63;;;;;;;1.88;100.00;99661.28;5080829;28;20054;-78
2022/12/01 07:24:13;;;;;;;22.77;11.02;;;;;;;1.90;100.00;99654.00;5082379;28;20556;-78
2022/12/01 07:26:43;;;;;;;26.48;11.30;;;;;;;2.03;100.00;99662.81;5090516;28;20044;-78
2022/12/01 07:29:10;;;;;;;26.77;12.48;;;;;;;1.96;100.00;99640.13;5082136;28;20075;-78
2022/12/01 07:31:37;;;;;;;28.00;12.07;;;;;;;1.98;100.00;99664.97;5081421;28;20376;-78
2022/12/01 07:34:05;;;;;;;30.35;10.85;;;;;;;1.85;100.00;99662.41;5077481;28;20044;-78
2022/12/01 07:36:32;;;;;;;24.30;11.05;;;;;;;1.85;100.00;99661.53;5085943;28;20041;-79
2022/12/01 07:39:00;;;;;;;24.90;11.73;;;;;;;1.75;100.00;99651.50;5088557;28;20307;-78
2022/12/01 07:41:29;;;;;;;24.90;11.27;;;;;;;1.79;100.00;99651.28;5087810;28;20075;-78
2022/12/01 07:43:55;;;;;;;26.98;11.73;;;;;;;1.97;100.00;99683.88;5081097;28;20514;-78
2022/12/01 07:46:25;;;;;;;26.00;11.80;;;;;;;1.73;100.00;99649.91;5089306;28;20044;-78
2022/12/01 07:48:53;;;;;;;27.30;11.73;;;;;;;1.82;100.00;99653.72;5088265;28;20125;-78
2022/12/01 07:51:21;;;;;;;27.83;11.80;;;;;;;1.91;100.00;99671.78;5087249;28;20487;-78
2022/12/01 07:53:49;;;;;;;23.33;10.43;;;;;;;1.80;100.00;99658.34;5088985;28;20048;-78
2022/12/01 07:56:16;;;;;;;24.63;11.25;;;;;;;1.98;100.00;99682.91;5089841;28;20054;-77
2022/12/01 07:58:44;;;;;;;21.27;10.77;;;;;;;1.95;100.00;99676.78;5084486;28;20135;-77
2022/12/01 08:01:13;;;;;;;19.70;9.05;;;;;;;1.96;100.00;99677.66;5082202;28;20052;-77
2022/12/01 08:03:40;;;;;;;26.77;11.65;;;;;;;1.99;100.00;99682.78;5088078;28;20055;-77
2022/12/01 08:06:08;;;;;;;24.63;10.50;;;;;;;1.84;100.00;99671.41;5089611;28;20567;-77
2022/12/01 08:08:37;;;;;;;22.38;10.57;;;;;;;1.76;100.00;99676.47;5089479;28;20105;-77
2022/12/01 08:11:06;;;;;;;24.33;11.63;;;;;;;1.94;100.00;99679.59;5089789;28;20105;-77
2022/12/01 08:13:33;;;;;;;26.35;10.70;;;;;;;1.80;100.00;99658.34;5088859;28;20055;-77
2022/12/01 08:16:04;;;;;;;25.77;11.93;;;;;;;2.02;100.00;99687.91;5089776;28;20047;-77
2022/12/01 08:18:31;;;;;;;28.40;12.02;;;;;;;1.98;100.00;99689.13;5082845;28;20044;-77
2022/12/01 08:20:58;;;;;;;25.08;12.23;;;;;;;1.95;100.00;99671.44;5088518;28;20367;-77
2022/12/01 08:23:24;;;;;;;28.52;12.35;;;;;;;2.17;100.00;99707.34;5089147;28;20055;-77
2022/12/01 08:25:51;;;;;;;24.85;12.50;;;;;;;2.02;100.00;99687.91;5087658;28;20040;-78
2022/12/01 08:28:18;;;;;;;26.48;12.40;;;;;;;2.16;100.00;99702.94;5089875;28;20040;-77
2022/12/01 08:30:44;;;;;;;27.58;11.32;;;;;;;2.08;100.00;99691.97;5089341;28;20522;-78
2022/12/01 08:33:12;;;;;;;28.02;12.32;;;;;;;2.28;100.00;99699.31;5082141;28;20132;-78
2022/12/01 08:35:39;;;;;;;30.38;12.48;;;;;;;2.32;100.00;99709.81;5089539;28;20070;-78
2022/12/01 08:38:06;;;;;;;26.98;12.80;;;;;;;2.16;100.00;99688.69;5081495;28;20051;-78
2022/12/01 08:40:32;;;;;;;26.10;12.30;;;;;;;2.18;100.00;99681.38;5089525;28;20040;-78
2022/12/01 08:42:59;;;;;;;34.05;12.85;;;;;;;2.29;100.00;99692.13;5089920;28;20434;-78
2022/12/01 08:45:26;;;;;;;27.58;12.60;;;;;;;2.42;100.00;99714.34;5093447;28;20043;-78
2022/12/01 08:47:53;;;;;;;29.15;13.10;;;;;;;2.33;100.00;99690.91;5093060;28;20048;-78
2022/12/01 08:50:25;;;;;;;26.23;11.60;;;;;;;2.40;100.00;99708.25;5093386;28;20079;-78
2022/12/01 08:52:51;;;;;;;32.25;12.38;;;;;;;2.37;100.00;99708.47;5092440;28;20174;-78
2022/12/01 08:55:18;;;;;;;27.38;11.23;;;;;;;2.32;100.00;99710.69;5093234;28;20047;-78
2022/12/01 08:57:45;;;;;;;24.27;12.43;;;;;;;2.38;100.00;99696.78;5092177;28;20138;-78
2022/12/01 09:00:12;;;;;;;26.08;10.95;;;;;;;2.38;100.00;99696.78;5091491;28;20043;-78
2022/12/01 09:02:39;;;;;;;24.80;11.65;;;;;;;2.30;100.00;99691.16;5091238;28;20547;-78
2022/12/01 09:05:06;;;;;;;27.67;12.10;;;;;;;2.47;100.00;99714.00;5091342;28;20074;-78
2022/12/01 09:07:34;;;;;;;26.77;11.93;;;;;;;2.36;100.00;99689.81;5092639;28;20040;-78
2022/12/01 09:10:01;;;;;;;26.70;11.48;;;;;;;2.26;100.00;99674.44;5092686;28;20051;-77
2022/12/01 09:12:29;;;;;;;23.13;10.80;;;;;;;2.29;100.00;99679.56;5091384;28;20097;-77
2022/12/01 09:14:56;;;;;;;25.02;12.63;;;;;;;2.44;100.00;99700.81;5091545;28;20063;-77
2022/12/01 09:17:22;;;;;;;25.60;12.20;;;;;;;2.52;100.00;99701.06;5090998;28;20048;-77
2022/12/01 09:19:49;;;;;;;28.25;11.65;;;;;;;2.47;100.00;99681.81;5092774;28;20067;-77
2022/12/01 09:22:16;;;;;;;25.70;10.05;;;;;;;2.64;100.00;99700.09;5091869;28;20052;-78
2022/12/01 09:24:44;;;;;;;27.05;11.40;;;;;;;2.61;100.00;99712.91;5092773;28;20055;-77
2022/12/01 09:27:12;;;;;;;24.63;9.70;;;;;;;2.52;100.00;99710.97;5088755;28;20040;-77
2022/12/01 09:29:38;;;;;;;20.70;11.18;;;;;;;2.33;100.00;99677.50;5092645;28;20072;-77
2022/12/01 09:32:05;;;;;;;29.30;12.60;;;;;;;2.51;100.00;99717.28;5091638;28;20044;-77
2022/12/01 09:34:32;;;;;;;28.85;11.93;;;;;;;2.35;100.00;99697.03;5077039;28;20132;-78
2022/12/01 09:36:59;;;;;;;25.55;9.63;;;;;;;2.23;100.00;99695.28;5092325;28;20059;-78
2022/12/01 09:39:26;;;;;;;26.23;11.30;;;;;;;2.53;100.00;99716.22;5092248;28;20083;-78
2022/12/01 09:41:57;;;;;;;25.80;12.00;;;;;;;2.65;100.00;99701.81;5089397;28;20526;-78
2022/12/01 09:44:33;;;;;;;25.85;11.48;;;;;;;2.58;100.00;99683.63;5089467;28;20044;-77
2022/12/01 09:47:08;;;;;;;25.00;11.63;;;;;;;2.62;100.00;99680.59;5092096;28;20048;-79
2022/12/01 09:49:46;;;;;;;27.70;11.32;;;;;;;2.71;100.00;99679.00;5092269;28;20048;-78
2022/12/01 09:52:15;;;;;;;22.58;11.07;;;;;;;2.96;100.00;99695.84;5089820;28;20535;-78
2022/12/01 09:54:41;;;;;;;28.40;12.23;;;;;;;2.91;100.00;99690.00;5091034;28;20555;-78
2022/12/01 09:57:17;;;;;;;25.50;11.32;;;;;;;3.00;100.00;99708.88;5091644;28;20048;-78
2022/12/01 09:59:45;;;;;;;26.00;11.95;;;;;;;3.05;100.00;99703.16;5083915;28;20047;-78
2022/12/01 10:02:24;;;;;;;23.23;11.75;;;;;;;2.90;100.00;99664.94;5091315;28;20076;-79
2022/12/01 10:04:53;;;;;;;31.33;12.85;;;;;;;2.80;100.00;99664.84;5084048;28;20086;-79
2022/12/01 10:07:24;;;;;;;22.88;11.32;;;;;;;3.05;100.00;99694.25;5087824;28;20054;-79
2022/12/01 10:09:55;;;;;;;27.88;12.25;;;;;;;2.88;100.00;99658.84;5085969;28;20045;-79
2022/12/01 10:12:26;;;;;;;28.70;12.23;;;;;;;3.01;100.00;99680.19;5087372;28;20043;-79
2022/12/01 10:15:14;;;;;;;24.60;10.75;;;;;;;3.05;100.00;99686.19;5083409;28;20044;-78
2022/12/01 10:17:48;;;;;;;24.08;11.38;;;;;;;3.04;100.00;99668.34;5091405;28;20123;-78
2022/12/01 10:20:23;;;;;;;21.50;10.68;;;;;;;3.07;100.00;99673.47;5091891;28;20050;-79
2022/12/01 10:23:08;;;;;;;23.65;11.13;;;;;;;3.04;100.00;99655.78;5090496;28;20052;-80
2022/12/01 10:25:43;;;;;;;25.15;11.95;;;;;;;3.01;100.00;99648.81;5083105;28;20430;-78
2022/12/01 10:28:44;;;;;;;22.17;10.82;;;;;;;2.99;100.00;99628.44;5091410;28;20380;-78
2022/12/01 10:31:19;;;;;;;25.42;10.73;;;;;;;2.92;100.00;99637.97;5091256;28;20558;-78
2022/12/01 10:33:58;;;;;;;26.05;11.68;;;;;;;2.94;100.00;99636.88;5090400;28;20058;-78
2022/12/01 10:36:25;;;;;;;21.33;9.85;;;;;;;3.15;100.00;99662.97;5091464;28;20119;-78
2022/12/01 10:38:52;;;;;;;23.42;9.88;;;;;;;3.09;100.00;99624.03;5086154;28;20060;-78
2022/12/01 10:41:22;;;;;;;24.27;10.13;;;;;;;3.16;100.00;99644.03;5080488;28;20040;-78
2022/12/01 10:43:53;;;;;;;21.77;10.13;;;;;;;3.24;100.00;99643.41;5089842;28;20455;-78
2022/12/01 10:46:25;;;;;;;24.00;11.38;;;;;;;3.34;100.00;99649.72;5091236;28;20123;-78
2022/12/01 10:48:54;;;;;;;26.20;12.00;;;;;;;3.30;100.00;99632.16;5090420;28;20052;-78
2022/12/01 10:51:22;;;;;;;21.10;10.13;;;;;;;3.26;100.00;99622.63;5091136;28;20494;-78
2022/12/01 10:53:49;;;;;;;23.08;10.80;;;;;;;3.35;100.00;99655.94;5088617;28;20052;-78
2022/12/01 10:56:28;;;;;;;26.98;11.07;;;;;;;3.26;100.00;99637.91;5089316;28;20056;-79
2022/12/01 10:58:59;;;;;;;24.52;11.80;;;;;;;3.26;100.00;99608.34;5090691;28;20067;-79
2022/12/01 11:01:29;;;;;;;22.08;10.30;;;;;;;3.30;100.00;99623.25;5091026;28;20052;-76
2022/12/01 11:04:00;;;;;;;26.63;11.38;;;;;;;3.41;100.00;99644.69;5089488;28;20147;-76
2022/12/01 11:06:29;;;;;;;24.67;11.07;;;;;;;3.47;100.00;99635.28;5090676;28;20052;-76
2022/12/01 11:08:58;;;;;;;19.83;9.70;;;;;;;3.26;100.00;99609.19;5085229;28;20075;-76
2022/12/01 11:11:31;;;;;;;23.05;10.57;;;;;;;3.33;100.00;99612.22;5086299;28;20058;-76
2022/12/01 11:14:01;;;;;;;20.75;10.82;;;;;;;3.56;100.00;99637.19;5085877;28;20052;-77
2022/12/01 11:16:36;;;;;;;;;;;;;;;3.58;100.00;99626.31;5091296;28;20467;-77
2022/12/01 11:19:28;;;;;;;24.50;10.52;;;;;;;3.43;100.00;99602.41;5090099;28;20368;-76
2022/12/01 11:21:56;;;;;;;26.00;10.90;;;;;;;3.42;100.00;99599.84;5088361;28;20052;-77
2022/12/01 11:24:28;;;;;;;19.75;10.32;;;;;;;3.51;100.00;99612.53;5090024;28;20044;-77
2022/12/01 11:26:57;;;;;;;22.38;10.43;;;;;;;3.52;100.00;99584.66;5088524;28;20040;-77
2022/12/01 11:29:31;;;;;;;23.45;11.00;;;;;;;3.58;100.00;99585.97;5090487;28;20058;-77
2022/12/01 11:32:00;;;;;;;22.55;10.43;;;;;;;3.86;100.00;99614.06;5086406;28;20052;-77
2022/12/01 11:34:29;;;;;;;24.40;10.95;;;;;;;3.85;100.00;99601.59;5089903;28;20063;-77